sensor_id;sensor_type;location;lat;lon;timestamp;P1;durP1;ratioP1;P2;durP2;ratioP2
20480;SDS011;10399;50.754;3.366;2023-06-10T00:02:25;7.20;;;5.80;;
20480;SDS011;10399;50.754;3.366;2023-06-10T00:04:54;6.75;;;5.65;;
20480;SDS011;10399;50.754;3.366;2023-06-10T00:07:21;10.02;;;5.80;;
20480;SDS011;10399;50.754;3.366;2023-06-10T00:09:48;11.85;;;5.82;;
20480;SDS011;10399;50.754;3.366;2023-06-10T00:12:16;7.03;;;5.97;;
20480;SDS011;10399;50.754;3.366;2023-06-10T00:14:44;14.65;;;5.95;;
20480;SDS011;10399;50.754;3.366;2023-06-10T00:17:11;10.90;;;5.60;;
20480;SDS011;10399;50.754;3.366;2023-06-10T00:19:38;9.82;;;6.13;;
20480;SDS011;10399;50.754;3.366;2023-06-10T00:22:07;9.10;;;5.80;;
20480;SDS011;10399;50.754;3.366;2023-06-10T00:24:37;7.40;;;5.68;;
20480;SDS011;10399;50.754;3.366;2023-06-10T00:27:05;8.35;;;5.72;;
20480;SDS011;10399;50.754;3.366;2023-06-10T00:29:33;11.95;;;5.82;;
20480;SDS011;10399;50.754;3.366;2023-06-10T00:32:01;9.38;;;6.03;;
20480;SDS011;10399;50.754;3.366;2023-06-10T00:34:28;13.88;;;5.93;;
20480;SDS011;10399;50.754;3.366;2023-06-10T00:36:55;7.90;;;5.88;;
20480;SDS011;10399;50.754;3.366;2023-06-10T00:39:22;7.70;;;6.45;;
20480;SDS011;10399;50.754;3.366;2023-06-10T00:41:50;9.05;;;5.85;;
20480;SDS011;10399;50.754;3.366;2023-06-10T00:44:17;8.20;;;5.63;;
20480;SDS011;10399;50.754;3.366;2023-06-10T00:46:44;9.05;;;6.07;;
20480;SDS011;10399;50.754;3.366;2023-06-10T00:49:11;8.23;;;5.97;;
20480;SDS011;10399;50.754;3.366;2023-06-10T00:51:38;8.07;;;6.07;;
20480;SDS011;10399;50.754;3.366;2023-06-10T00:54:06;9.50;;;5.70;;
20480;SDS011;10399;50.754;3.366;2023-06-10T00:56:34;9.82;;;6.13;;
20480;SDS011;10399;50.754;3.366;2023-06-10T00:59:02;6.97;;;6.10;;
20480;SDS011;10399;50.754;3.366;2023-06-10T01:01:30;7.78;;;6.28;;
20480;SDS011;10399;50.754;3.366;2023-06-10T01:03:58;7.00;;;5.78;;
20480;SDS011;10399;50.754;3.366;2023-06-10T01:09:06;9.43;;;5.90;;
20480;SDS011;10399;50.754;3.366;2023-06-10T01:11:47;11.23;;;5.82;;
20480;SDS011;10399;50.754;3.366;2023-06-10T01:14:38;7.95;;;5.80;;
20480;SDS011;10399;50.754;3.366;2023-06-10T01:17:11;10.02;;;6.43;;
20480;SDS011;10399;50.754;3.366;2023-06-10T01:19:38;10.43;;;6.05;;
20480;SDS011;10399;50.754;3.366;2023-06-10T01:22:07;7.75;;;6.53;;
20480;SDS011;10399;50.754;3.366;2023-06-10T01:24:34;8.88;;;6.07;;
20480;SDS011;10399;50.754;3.366;2023-06-10T01:27:01;10.40;;;6.35;;
20480;SDS011;10399;50.754;3.366;2023-06-10T01:29:39;11.40;;;6.60;;
20480;SDS011;10399;50.754;3.366;2023-06-10T01:34:46;8.68;;;6.32;;
20480;SDS011;10399;50.754;3.366;2023-06-10T01:37:15;8.10;;;6.05;;
20480;SDS011;10399;50.754;3.366;2023-06-10T01:39:45;7.05;;;5.72;;
20480;SDS011;10399;50.754;3.366;2023-06-10T01:42:13;9.77;;;6.55;;
20480;SDS011;10399;50.754;3.366;2023-06-10T01:44:41;8.00;;;6.80;;
20480;SDS011;10399;50.754;3.366;2023-06-10T01:47:08;8.55;;;6.57;;
20480;SDS011;10399;50.754;3.366;2023-06-10T01:49:35;8.50;;;6.53;;
20480;SDS011;10399;50.754;3.366;2023-06-10T01:52:02;11.32;;;6.32;;
20480;SDS011;10399;50.754;3.366;2023-06-10T01:54:29;8.48;;;6.65;;
20480;SDS011;10399;50.754;3.366;2023-06-10T01:56:58;13.18;;;6.97;;
20480;SDS011;10399;50.754;3.366;2023-06-10T01:59:25;9.20;;;6.15;;
20480;SDS011;10399;50.754;3.366;2023-06-10T02:01:52;10.25;;;6.78;;
20480;SDS011;10399;50.754;3.366;2023-06-10T02:04:19;7.50;;;6.70;;
20480;SDS011;10399;50.754;3.366;2023-06-10T02:06:47;12.13;;;6.70;;
20480;SDS011;10399;50.754;3.366;2023-06-10T02:09:14;9.77;;;6.63;;
20480;SDS011;10399;50.754;3.366;2023-06-10T02:11:41;10.80;;;6.65;;
20480;SDS011;10399;50.754;3.366;2023-06-10T02:14:08;11.65;;;7.47;;
20480;SDS011;10399;50.754;3.366;2023-06-10T02:16:35;11.57;;;6.80;;
20480;SDS011;10399;50.754;3.366;2023-06-10T02:19:05;7.45;;;6.68;;
20480;SDS011;10399;50.754;3.366;2023-06-10T02:21:33;8.88;;;7.05;;
20480;SDS011;10399;50.754;3.366;2023-06-10T02:24:00;9.98;;;7.63;;
20480;SDS011;10399;50.754;3.366;2023-06-10T02:26:27;7.80;;;6.68;;
20480;SDS011;10399;50.754;3.366;2023-06-10T02:28:55;12.45;;;7.00;;
20480;SDS011;10399;50.754;3.366;2023-06-10T02:31:22;9.20;;;7.07;;
20480;SDS011;10399;50.754;3.366;2023-06-10T02:33:51;8.30;;;6.70;;
20480;SDS011;10399;50.754;3.366;2023-06-10T02:36:18;10.43;;;7.45;;
20480;SDS011;10399;50.754;3.366;2023-06-10T02:38:47;8.32;;;6.82;;
20480;SDS011;10399;50.754;3.366;2023-06-10T02:41:14;10.10;;;7.07;;
20480;SDS011;10399;50.754;3.366;2023-06-10T02:43:41;10.90;;;7.75;;
20480;SDS011;10399;50.754;3.366;2023-06-10T02:46:08;9.98;;;7.68;;
20480;SDS011;10399;50.754;3.366;2023-06-10T02:48:42;9.73;;;7.80;;
20480;SDS011;10399;50.754;3.366;2023-06-10T02:51:10;13.32;;;7.72;;
20480;SDS011;10399;50.754;3.366;2023-06-10T02:53:37;10.45;;;7.88;;
20480;SDS011;10399;50.754;3.366;2023-06-10T02:56:04;11.75;;;7.10;;
20480;SDS011;10399;50.754;3.366;2023-06-10T02:58:31;7.97;;;7.05;;
20480;SDS011;10399;50.754;3.366;2023-06-10T03:00:58;11.00;;;7.82;;
20480;SDS011;10399;50.754;3.366;2023-06-10T03:03:25;13.32;;;7.97;;
20480;SDS011;10399;50.754;3.366;2023-06-10T03:05:54;15.68;;;7.22;;
20480;SDS011;10399;50.754;3.366;2023-06-10T03:08:23;11.77;;;7.82;;
20480;SDS011;10399;50.754;3.366;2023-06-10T03:10:50;12.95;;;7.68;;
20480;SDS011;10399;50.754;3.366;2023-06-10T03:13:17;9.65;;;7.82;;
20480;SDS011;10399;50.754;3.366;2023-06-10T03:15:44;12.95;;;8.10;;
20480;SDS011;10399;50.754;3.366;2023-06-10T03:18:12;10.77;;;8.02;;
20480;SDS011;10399;50.754;3.366;2023-06-10T03:20:39;10.57;;;8.60;;
20480;SDS011;10399;50.754;3.366;2023-06-10T03:23:06;8.50;;;7.47;;
20480;SDS011;10399;50.754;3.366;2023-06-10T03:25:33;9.27;;;7.50;;
20480;SDS011;10399;50.754;3.366;2023-06-10T03:28:01;8.85;;;7.35;;
20480;SDS011;10399;50.754;3.366;2023-06-10T03:30:28;11.07;;;8.45;;
20480;SDS011;10399;50.754;3.366;2023-06-10T03:32:55;15.13;;;7.93;;
20480;SDS011;10399;50.754;3.366;2023-06-10T03:35:22;13.38;;;8.88;;
20480;SDS011;10399;50.754;3.366;2023-06-10T03:37:49;11.77;;;8.35;;
20480;SDS011;10399;50.754;3.366;2023-06-10T03:40:17;10.10;;;7.95;;
20480;SDS011;10399;50.754;3.366;2023-06-10T03:42:44;12.73;;;8.00;;
20480;SDS011;10399;50.754;3.366;2023-06-10T03:45:11;10.65;;;8.20;;
20480;SDS011;10399;50.754;3.366;2023-06-10T03:47:38;10.75;;;8.07;;
20480;SDS011;10399;50.754;3.366;2023-06-10T03:50:07;12.48;;;8.30;;
20480;SDS011;10399;50.754;3.366;2023-06-10T03:52:35;12.25;;;7.75;;
20480;SDS011;10399;50.754;3.366;2023-06-10T03:55:04;10.27;;;8.82;;
20480;SDS011;10399;50.754;3.366;2023-06-10T03:57:32;12.10;;;8.38;;
20480;SDS011;10399;50.754;3.366;2023-06-10T03:59:59;9.82;;;7.38;;
20480;SDS011;10399;50.754;3.366;2023-06-10T04:02:25;13.38;;;7.60;;
20480;SDS011;10399;50.754;3.366;2023-06-10T04:04:53;16.58;;;8.10;;
20480;SDS011;10399;50.754;3.366;2023-06-10T04:07:20;10.57;;;7.68;;
20480;SDS011;10399;50.754;3.366;2023-06-10T04:09:47;13.30;;;8.60;;
20480;SDS011;10399;50.754;3.366;2023-06-10T04:12:14;14.02;;;8.15;;
20480;SDS011;10399;50.754;3.366;2023-06-10T04:14:42;11.05;;;8.50;;
20480;SDS011;10399;50.754;3.366;2023-06-10T04:17:09;8.73;;;7.70;;
20480;SDS011;10399;50.754;3.366;2023-06-10T04:19:37;13.75;;;8.13;;
20480;SDS011;10399;50.754;3.366;2023-06-10T04:22:04;10.70;;;7.90;;
20480;SDS011;10399;50.754;3.366;2023-06-10T04:24:31;10.55;;;7.13;;
20480;SDS011;10399;50.754;3.366;2023-06-10T04:26:58;9.32;;;7.45;;
20480;SDS011;10399;50.754;3.366;2023-06-10T04:29:25;13.13;;;7.90;;
20480;SDS011;10399;50.754;3.366;2023-06-10T04:31:52;10.80;;;8.32;;
20480;SDS011;10399;50.754;3.366;2023-06-10T04:34:19;13.82;;;8.18;;
20480;SDS011;10399;50.754;3.366;2023-06-10T04:36:46;10.85;;;7.38;;
20480;SDS011;10399;50.754;3.366;2023-06-10T04:39:14;9.85;;;7.47;;
20480;SDS011;10399;50.754;3.366;2023-06-10T04:41:43;10.27;;;7.20;;
20480;SDS011;10399;50.754;3.366;2023-06-10T04:44:10;9.38;;;7.40;;
20480;SDS011;10399;50.754;3.366;2023-06-10T04:46:37;12.35;;;7.80;;
20480;SDS011;10399;50.754;3.366;2023-06-10T04:49:04;9.13;;;7.15;;
20480;SDS011;10399;50.754;3.366;2023-06-10T04:51:31;11.48;;;7.28;;
20480;SDS011;10399;50.754;3.366;2023-06-10T04:53:58;12.38;;;7.78;;
20480;SDS011;10399;50.754;3.366;2023-06-10T04:56:30;9.32;;;7.15;;
20480;SDS011;10399;50.754;3.366;2023-06-10T04:58:57;13.02;;;7.47;;
20480;SDS011;10399;50.754;3.366;2023-06-10T05:01:25;10.52;;;7.45;;
20480;SDS011;10399;50.754;3.366;2023-06-10T05:03:52;9.90;;;7.03;;
20480;SDS011;10399;50.754;3.366;2023-06-10T05:06:19;10.77;;;7.18;;
20480;SDS011;10399;50.754;3.366;2023-06-10T05:08:46;12.07;;;7.78;;
20480;SDS011;10399;50.754;3.366;2023-06-10T05:11:13;12.43;;;7.47;;
20480;SDS011;10399;50.754;3.366;2023-06-10T05:13:41;10.93;;;7.15;;
20480;SDS011;10399;50.754;3.366;2023-06-10T05:16:10;13.43;;;7.25;;
20480;SDS011;10399;50.754;3.366;2023-06-10T05:18:37;11.55;;;7.65;;
20480;SDS011;10399;50.754;3.366;2023-06-10T05:21:04;9.00;;;7.20;;
20480;SDS011;10399;50.754;3.366;2023-06-10T05:23:31;8.88;;;7.20;;
20480;SDS011;10399;50.754;3.366;2023-06-10T05:25:59;8.70;;;7.15;;
20480;SDS011;10399;50.754;3.366;2023-06-10T05:28:26;9.10;;;7.18;;
20480;SDS011;10399;50.754;3.366;2023-06-10T05:30:53;9.90;;;7.47;;
20480;SDS011;10399;50.754;3.366;2023-06-10T05:33:20;11.18;;;7.20;;
20480;SDS011;10399;50.754;3.366;2023-06-10T05:35:48;35.72;;;10.57;;
20480;SDS011;10399;50.754;3.366;2023-06-10T05:38:15;10.30;;;7.28;;
20480;SDS011;10399;50.754;3.366;2023-06-10T05:40:42;9.10;;;6.90;;
20480;SDS011;10399;50.754;3.366;2023-06-10T05:43:09;11.07;;;7.35;;
20480;SDS011;10399;50.754;3.366;2023-06-10T05:45:37;10.15;;;7.30;;
20480;SDS011;10399;50.754;3.366;2023-06-10T05:48:06;11.35;;;7.18;;
20480;SDS011;10399;50.754;3.366;2023-06-10T05:50:34;8.40;;;6.78;;
20480;SDS011;10399;50.754;3.366;2023-06-10T05:53:05;11.07;;;7.13;;
20480;SDS011;10399;50.754;3.366;2023-06-10T05:55:44;13.52;;;6.97;;
20480;SDS011;10399;50.754;3.366;2023-06-10T05:58:12;12.45;;;7.15;;
20480;SDS011;10399;50.754;3.366;2023-06-10T06:00:40;13.48;;;7.65;;
20480;SDS011;10399;50.754;3.366;2023-06-10T06:03:09;17.35;;;7.35;;
20480;SDS011;10399;50.754;3.366;2023-06-10T06:05:37;11.77;;;7.00;;
20480;SDS011;10399;50.754;3.366;2023-06-10T06:08:05;8.95;;;6.97;;
20480;SDS011;10399;50.754;3.366;2023-06-10T06:10:32;9.05;;;7.85;;
20480;SDS011;10399;50.754;3.366;2023-06-10T06:13:00;15.68;;;7.03;;
20480;SDS011;10399;50.754;3.366;2023-06-10T06:15:28;8.75;;;7.05;;
20480;SDS011;10399;50.754;3.366;2023-06-10T06:17:55;11.55;;;7.40;;
20480;SDS011;10399;50.754;3.366;2023-06-10T06:20:22;11.07;;;7.57;;
20480;SDS011;10399;50.754;3.366;2023-06-10T06:22:50;10.13;;;6.75;;
20480;SDS011;10399;50.754;3.366;2023-06-10T06:25:17;12.27;;;7.90;;
20480;SDS011;10399;50.754;3.366;2023-06-10T06:27:44;10.02;;;7.45;;
20480;SDS011;10399;50.754;3.366;2023-06-10T06:30:11;13.30;;;7.10;;
20480;SDS011;10399;50.754;3.366;2023-06-10T06:32:39;11.35;;;7.10;;
20480;SDS011;10399;50.754;3.366;2023-06-10T06:35:08;8.75;;;6.53;;
20480;SDS011;10399;50.754;3.366;2023-06-10T06:37:36;12.00;;;7.03;;
20480;SDS011;10399;50.754;3.366;2023-06-10T06:40:03;10.50;;;7.10;;
20480;SDS011;10399;50.754;3.366;2023-06-10T06:42:31;9.93;;;6.95;;
20480;SDS011;10399;50.754;3.366;2023-06-10T06:44:58;10.50;;;7.35;;
20480;SDS011;10399;50.754;3.366;2023-06-10T06:47:25;8.05;;;7.05;;
20480;SDS011;10399;50.754;3.366;2023-06-10T06:49:53;9.10;;;6.68;;
20480;SDS011;10399;50.754;3.366;2023-06-10T06:52:19;8.73;;;7.35;;
20480;SDS011;10399;50.754;3.366;2023-06-10T06:54:48;10.32;;;6.88;;
20480;SDS011;10399;50.754;3.366;2023-06-10T06:57:16;11.85;;;7.57;;
20480;SDS011;10399;50.754;3.366;2023-06-10T06:59:42;9.95;;;6.85;;
20480;SDS011;10399;50.754;3.366;2023-06-10T07:02:11;10.45;;;6.78;;
20480;SDS011;10399;50.754;3.366;2023-06-10T07:04:38;9.57;;;6.93;;
20480;SDS011;10399;50.754;3.366;2023-06-10T07:07:07;9.30;;;6.68;;
20480;SDS011;10399;50.754;3.366;2023-06-10T07:09:35;9.32;;;7.07;;
20480;SDS011;10399;50.754;3.366;2023-06-10T07:12:02;9.68;;;7.78;;
20480;SDS011;10399;50.754;3.366;2023-06-10T07:14:30;9.45;;;7.43;;
20480;SDS011;10399;50.754;3.366;2023-06-10T07:16:57;9.55;;;6.60;;
20480;SDS011;10399;50.754;3.366;2023-06-10T07:19:24;11.65;;;7.05;;
20480;SDS011;10399;50.754;3.366;2023-06-10T07:21:51;8.43;;;6.72;;
20480;SDS011;10399;50.754;3.366;2023-06-10T07:24:18;12.02;;;7.43;;
20480;SDS011;10399;50.754;3.366;2023-06-10T07:26:46;7.78;;;6.97;;
20480;SDS011;10399;50.754;3.366;2023-06-10T07:29:13;12.43;;;6.90;;
20480;SDS011;10399;50.754;3.366;2023-06-10T07:31:41;11.02;;;7.13;;
20480;SDS011;10399;50.754;3.366;2023-06-10T07:34:08;8.43;;;7.00;;
20480;SDS011;10399;50.754;3.366;2023-06-10T07:36:35;8.20;;;7.32;;
20480;SDS011;10399;50.754;3.366;2023-06-10T07:39:03;10.70;;;6.93;;
20480;SDS011;10399;50.754;3.366;2023-06-10T07:41:31;14.98;;;7.10;;
20480;SDS011;10399;50.754;3.366;2023-06-10T07:43:58;10.65;;;7.10;;
20480;SDS011;10399;50.754;3.366;2023-06-10T07:46:25;9.02;;;6.93;;
20480;SDS011;10399;50.754;3.366;2023-06-10T07:48:54;9.68;;;6.68;;
20480;SDS011;10399;50.754;3.366;2023-06-10T07:51:21;6.85;;;6.15;;
20480;SDS011;10399;50.754;3.366;2023-06-10T07:53:48;7.55;;;6.57;;
20480;SDS011;10399;50.754;3.366;2023-06-10T07:56:16;14.80;;;6.70;;
20480;SDS011;10399;50.754;3.366;2023-06-10T07:58:43;8.25;;;6.88;;
20480;SDS011;10399;50.754;3.366;2023-06-10T08:01:10;12.30;;;6.85;;
20480;SDS011;10399;50.754;3.366;2023-06-10T08:03:37;12.32;;;7.13;;
20480;SDS011;10399;50.754;3.366;2023-06-10T08:06:04;11.02;;;6.85;;
20480;SDS011;10399;50.754;3.366;2023-06-10T08:08:32;12.80;;;7.25;;
20480;SDS011;10399;50.754;3.366;2023-06-10T08:11:00;10.00;;;6.25;;
20480;SDS011;10399;50.754;3.366;2023-06-10T08:13:28;13.45;;;6.53;;
20480;SDS011;10399;50.754;3.366;2023-06-10T08:15:55;12.35;;;6.25;;
20480;SDS011;10399;50.754;3.366;2023-06-10T08:18:22;9.80;;;6.35;;
20480;SDS011;10399;50.754;3.366;2023-06-10T08:20:49;8.60;;;6.43;;
20480;SDS011;10399;50.754;3.366;2023-06-10T08:23:16;10.75;;;6.65;;
20480;SDS011;10399;50.754;3.366;2023-06-10T08:25:43;8.35;;;6.47;;
20480;SDS011;10399;50.754;3.366;2023-06-10T08:28:10;9.23;;;6.78;;
20480;SDS011;10399;50.754;3.366;2023-06-10T08:30:37;11.38;;;6.15;;
20480;SDS011;10399;50.754;3.366;2023-06-10T08:33:04;8.00;;;6.28;;
20480;SDS011;10399;50.754;3.366;2023-06-10T08:35:32;8.15;;;6.95;;
20480;SDS011;10399;50.754;3.366;2023-06-10T08:37:59;9.00;;;6.65;;
20480;SDS011;10399;50.754;3.366;2023-06-10T08:40:26;8.27;;;6.53;;
20480;SDS011;10399;50.754;3.366;2023-06-10T08:43:06;10.45;;;6.95;;
20480;SDS011;10399;50.754;3.366;2023-06-10T08:45:35;10.57;;;6.25;;
20480;SDS011;10399;50.754;3.366;2023-06-10T08:48:03;8.60;;;6.47;;
20480;SDS011;10399;50.754;3.366;2023-06-10T08:50:36;7.88;;;6.03;;
20480;SDS011;10399;50.754;3.366;2023-06-10T08:53:06;12.40;;;6.72;;
20480;SDS011;10399;50.754;3.366;2023-06-10T08:55:38;8.05;;;6.35;;
20480;SDS011;10399;50.754;3.366;2023-06-10T08:58:08;9.55;;;6.55;;
20480;SDS011;10399;50.754;3.366;2023-06-10T09:00:36;9.00;;;6.53;;
20480;SDS011;10399;50.754;3.366;2023-06-10T09:03:04;7.68;;;6.60;;
20480;SDS011;10399;50.754;3.366;2023-06-10T09:05:33;8.38;;;6.55;;
20480;SDS011;10399;50.754;3.366;2023-06-10T09:08:02;12.85;;;6.57;;
20480;SDS011;10399;50.754;3.366;2023-06-10T09:10:32;12.90;;;6.95;;
20480;SDS011;10399;50.754;3.366;2023-06-10T09:12:59;11.38;;;6.80;;
20480;SDS011;10399;50.754;3.366;2023-06-10T09:15:26;7.22;;;6.35;;
20480;SDS011;10399;50.754;3.366;2023-06-10T09:17:53;9.75;;;6.57;;
20480;SDS011;10399;50.754;3.366;2023-06-10T09:20:21;11.20;;;6.68;;
20480;SDS011;10399;50.754;3.366;2023-06-10T09:22:48;8.75;;;6.20;;
20480;SDS011;10399;50.754;3.366;2023-06-10T09:25:16;10.68;;;6.13;;
20480;SDS011;10399;50.754;3.366;2023-06-10T09:27:52;7.65;;;6.30;;
20480;SDS011;10399;50.754;3.366;2023-06-10T09:30:24;14.80;;;6.45;;
20480;SDS011;10399;50.754;3.366;2023-06-10T09:33:00;12.98;;;6.57;;
20480;SDS011;10399;50.754;3.366;2023-06-10T09:35:30;9.02;;;6.07;;
20480;SDS011;10399;50.754;3.366;2023-06-10T09:37:58;9.20;;;6.10;;
20480;SDS011;10399;50.754;3.366;2023-06-10T09:40:26;9.75;;;5.85;;
20480;SDS011;10399;50.754;3.366;2023-06-10T09:43:03;8.48;;;6.20;;
20480;SDS011;10399;50.754;3.366;2023-06-10T09:45:31;11.27;;;5.97;;
20480;SDS011;10399;50.754;3.366;2023-06-10T09:48:00;7.28;;;5.75;;
20480;SDS011;10399;50.754;3.366;2023-06-10T09:50:27;7.22;;;5.50;;
20480;SDS011;10399;50.754;3.366;2023-06-10T09:52:54;8.50;;;5.75;;
20480;SDS011;10399;50.754;3.366;2023-06-10T09:55:22;11.75;;;4.82;;
20480;SDS011;10399;50.754;3.366;2023-06-10T09:57:52;8.15;;;5.50;;
20480;SDS011;10399;50.754;3.366;2023-06-10T10:00:21;7.22;;;5.50;;
20480;SDS011;10399;50.754;3.366;2023-06-10T10:02:50;6.32;;;4.53;;
20480;SDS011;10399;50.754;3.366;2023-06-10T10:05:20;9.98;;;4.95;;
20480;SDS011;10399;50.754;3.366;2023-06-10T10:07:49;8.30;;;5.20;;
20480;SDS011;10399;50.754;3.366;2023-06-10T10:10:18;8.13;;;4.75;;
20480;SDS011;10399;50.754;3.366;2023-06-10T10:12:47;12.82;;;5.03;;
20480;SDS011;10399;50.754;3.366;2023-06-10T10:15:17;7.78;;;5.35;;
20480;SDS011;10399;50.754;3.366;2023-06-10T10:18:03;9.90;;;5.30;;
20480;SDS011;10399;50.754;3.366;2023-06-10T10:20:40;7.47;;;4.80;;
20480;SDS011;10399;50.754;3.366;2023-06-10T10:23:21;8.57;;;4.85;;
20480;SDS011;10399;50.754;3.366;2023-06-10T10:25:51;7.07;;;4.80;;
20480;SDS011;10399;50.754;3.366;2023-06-10T10:28:21;12.82;;;7.30;;
20480;SDS011;10399;50.754;3.366;2023-06-10T10:30:54;7.03;;;5.32;;
20480;SDS011;10399;50.754;3.366;2023-06-10T10:35:56;9.30;;;4.75;;
20480;SDS011;10399;50.754;3.366;2023-06-10T10:38:24;5.78;;;4.43;;
20480;SDS011;10399;50.754;3.366;2023-06-10T10:40:52;9.60;;;4.57;;
20480;SDS011;10399;50.754;3.366;2023-06-10T10:43:21;6.70;;;4.55;;
20480;SDS011;10399;50.754;3.366;2023-06-10T10:46:01;10.40;;;5.10;;
20480;SDS011;10399;50.754;3.366;2023-06-10T10:48:37;10.45;;;5.50;;
20480;SDS011;10399;50.754;3.366;2023-06-10T10:51:04;8.70;;;5.32;;
20480;SDS011;10399;50.754;3.366;2023-06-10T10:53:31;7.28;;;5.20;;
20480;SDS011;10399;50.754;3.366;2023-06-10T10:56:13;11.80;;;4.78;;
20480;SDS011;10399;50.754;3.366;2023-06-10T10:58:41;7.15;;;4.63;;
20480;SDS011;10399;50.754;3.366;2023-06-10T11:01:12;8.98;;;5.30;;
20480;SDS011;10399;50.754;3.366;2023-06-10T11:03:44;7.70;;;5.35;;
20480;SDS011;10399;50.754;3.366;2023-06-10T11:06:15;10.13;;;5.15;;
20480;SDS011;10399;50.754;3.366;2023-06-10T11:08:45;8.32;;;4.93;;
20480;SDS011;10399;50.754;3.366;2023-06-10T11:11:18;10.90;;;4.75;;
20480;SDS011;10399;50.754;3.366;2023-06-10T11:16:31;7.63;;;4.88;;
20480;SDS011;10399;50.754;3.366;2023-06-10T11:19:08;7.60;;;4.32;;
20480;SDS011;10399;50.754;3.366;2023-06-10T11:24:30;6.57;;;4.93;;
20480;SDS011;10399;50.754;3.366;2023-06-10T11:32:30;5.07;;;4.10;;
20480;SDS011;10399;50.754;3.366;2023-06-10T11:34:59;10.32;;;4.53;;
20480;SDS011;10399;50.754;3.366;2023-06-10T11:37:29;6.38;;;4.43;;
20480;SDS011;10399;50.754;3.366;2023-06-10T11:39:56;6.38;;;4.57;;
20480;SDS011;10399;50.754;3.366;2023-06-10T11:42:24;5.70;;;4.43;;
20480;SDS011;10399;50.754;3.366;2023-06-10T11:44:52;9.43;;;5.55;;
20480;SDS011;10399;50.754;3.366;2023-06-10T11:47:20;7.60;;;4.80;;
20480;SDS011;10399;50.754;3.366;2023-06-10T11:49:58;5.30;;;4.55;;
20480;SDS011;10399;50.754;3.366;2023-06-10T11:52:26;7.15;;;4.57;;
20480;SDS011;10399;50.754;3.366;2023-06-10T11:54:55;8.93;;;4.72;;
20480;SDS011;10399;50.754;3.366;2023-06-10T11:57:22;8.25;;;4.95;;
20480;SDS011;10399;50.754;3.366;2023-06-10T11:59:50;7.70;;;4.65;;
20480;SDS011;10399;50.754;3.366;2023-06-10T12:02:18;5.68;;;4.55;;
20480;SDS011;10399;50.754;3.366;2023-06-10T12:04:47;7.70;;;4.22;;
20480;SDS011;10399;50.754;3.366;2023-06-10T12:07:18;5.88;;;4.63;;
20480;SDS011;10399;50.754;3.366;2023-06-10T12:10:00;8.65;;;4.65;;
20480;SDS011;10399;50.754;3.366;2023-06-10T12:12:44;5.35;;;4.55;;
20480;SDS011;10399;50.754;3.366;2023-06-10T12:15:11;10.63;;;5.20;;
20480;SDS011;10399;50.754;3.366;2023-06-10T12:17:51;5.55;;;4.15;;
20480;SDS011;10399;50.754;3.366;2023-06-10T12:20:29;6.55;;;4.20;;
20480;SDS011;10399;50.754;3.366;2023-06-10T12:23:00;5.43;;;4.50;;
20480;SDS011;10399;50.754;3.366;2023-06-10T12:25:35;9.18;;;4.00;;
20480;SDS011;10399;50.754;3.366;2023-06-10T12:28:09;5.35;;;4.78;;
20480;SDS011;10399;50.754;3.366;2023-06-10T12:30:36;5.57;;;4.85;;
20480;SDS011;10399;50.754;3.366;2023-06-10T12:33:03;5.95;;;4.55;;
20480;SDS011;10399;50.754;3.366;2023-06-10T12:35:30;6.07;;;4.38;;
20480;SDS011;10399;50.754;3.366;2023-06-10T12:40:34;7.65;;;4.38;;
20480;SDS011;10399;50.754;3.366;2023-06-10T12:43:08;5.72;;;4.60;;
20480;SDS011;10399;50.754;3.366;2023-06-10T12:45:37;6.90;;;4.38;;
20480;SDS011;10399;50.754;3.366;2023-06-10T12:48:16;7.03;;;4.70;;
20480;SDS011;10399;50.754;3.366;2023-06-10T12:50:52;7.15;;;4.32;;
20480;SDS011;10399;50.754;3.366;2023-06-10T12:53:21;4.78;;;4.20;;
20480;SDS011;10399;50.754;3.366;2023-06-10T12:55:50;5.85;;;5.03;;
20480;SDS011;10399;50.754;3.366;2023-06-10T12:58:19;18.45;;;4.55;;
20480;SDS011;10399;50.754;3.366;2023-06-10T13:00:46;9.70;;;4.18;;
20480;SDS011;10399;50.754;3.366;2023-06-10T13:03:15;7.93;;;4.60;;
20480;SDS011;10399;50.754;3.366;2023-06-10T13:05:43;4.90;;;4.43;;
20480;SDS011;10399;50.754;3.366;2023-06-10T13:08:10;6.82;;;4.53;;
20480;SDS011;10399;50.754;3.366;2023-06-10T13:10:37;7.32;;;4.32;;
20480;SDS011;10399;50.754;3.366;2023-06-10T13:13:04;6.78;;;4.18;;
20480;SDS011;10399;50.754;3.366;2023-06-10T13:15:33;6.47;;;4.38;;
20480;SDS011;10399;50.754;3.366;2023-06-10T13:18:08;7.20;;;4.60;;
20480;SDS011;10399;50.754;3.366;2023-06-10T13:20:35;7.90;;;4.78;;
20480;SDS011;10399;50.754;3.366;2023-06-10T13:23:02;11.15;;;4.35;;
20480;SDS011;10399;50.754;3.366;2023-06-10T13:25:30;7.35;;;4.82;;
20480;SDS011;10399;50.754;3.366;2023-06-10T13:27:57;5.93;;;4.50;;
20480;SDS011;10399;50.754;3.366;2023-06-10T13:30:24;8.90;;;4.78;;
20480;SDS011;10399;50.754;3.366;2023-06-10T13:32:52;9.70;;;4.30;;
20480;SDS011;10399;50.754;3.366;2023-06-10T13:35:20;17.33;;;4.40;;
20480;SDS011;10399;50.754;3.366;2023-06-10T13:37:47;8.43;;;4.47;;
20480;SDS011;10399;50.754;3.366;2023-06-10T13:40:14;5.88;;;4.70;;
20480;SDS011;10399;50.754;3.366;2023-06-10T13:42:42;5.40;;;4.50;;
20480;SDS011;10399;50.754;3.366;2023-06-10T13:45:09;8.60;;;4.13;;
20480;SDS011;10399;50.754;3.366;2023-06-10T13:47:37;6.35;;;4.32;;
20480;SDS011;10399;50.754;3.366;2023-06-10T13:50:05;15.65;;;4.55;;
20480;SDS011;10399;50.754;3.366;2023-06-10T13:52:33;6.28;;;3.92;;
20480;SDS011;10399;50.754;3.366;2023-06-10T13:55:13;6.57;;;4.25;;
20480;SDS011;10399;50.754;3.366;2023-06-10T13:57:40;5.50;;;3.92;;
20480;SDS011;10399;50.754;3.366;2023-06-10T14:00:08;4.93;;;4.28;;
20480;SDS011;10399;50.754;3.366;2023-06-10T14:02:36;6.38;;;4.60;;
20480;SDS011;10399;50.754;3.366;2023-06-10T14:05:05;7.47;;;4.30;;
20480;SDS011;10399;50.754;3.366;2023-06-10T14:07:35;6.05;;;4.28;;
20480;SDS011;10399;50.754;3.366;2023-06-10T14:10:03;7.60;;;4.43;;
20480;SDS011;10399;50.754;3.366;2023-06-10T14:12:31;6.90;;;4.50;;
20480;SDS011;10399;50.754;3.366;2023-06-10T14:14:58;5.30;;;4.13;;
20480;SDS011;10399;50.754;3.366;2023-06-10T14:17:25;5.32;;;4.43;;
20480;SDS011;10399;50.754;3.366;2023-06-10T14:34:36;5.87;;;4.07;;
20480;SDS011;10399;50.754;3.366;2023-06-10T14:37:05;4.40;;;4.00;;
20480;SDS011;10399;50.754;3.366;2023-06-10T14:51:49;4.95;;;4.20;;
20480;SDS011;10399;50.754;3.366;2023-06-10T14:54:17;4.90;;;4.32;;
20480;SDS011;10399;50.754;3.366;2023-06-10T14:56:44;7.55;;;4.47;;
20480;SDS011;10399;50.754;3.366;2023-06-10T14:59:11;6.72;;;4.10;;
20480;SDS011;10399;50.754;3.366;2023-06-10T15:01:38;8.60;;;4.57;;
20480;SDS011;10399;50.754;3.366;2023-06-10T15:04:08;6.18;;;4.80;;
20480;SDS011;10399;50.754;3.366;2023-06-10T15:06:36;7.17;;;4.80;;
20480;SDS011;10399;50.754;3.366;2023-06-10T15:09:03;9.52;;;5.07;;
20480;SDS011;10399;50.754;3.366;2023-06-10T15:11:30;7.28;;;4.68;;
20480;SDS011;10399;50.754;3.366;2023-06-10T15:13:57;6.22;;;4.88;;
20480;SDS011;10399;50.754;3.366;2023-06-10T15:16:24;8.32;;;4.28;;
20480;SDS011;10399;50.754;3.366;2023-06-10T15:18:52;12.70;;;4.90;;
20480;SDS011;10399;50.754;3.366;2023-06-10T15:21:19;5.90;;;5.07;;
20480;SDS011;10399;50.754;3.366;2023-06-10T15:23:46;5.22;;;4.72;;
20480;SDS011;10399;50.754;3.366;2023-06-10T15:26:14;10.20;;;5.07;;
20480;SDS011;10399;50.754;3.366;2023-06-10T15:28:41;8.18;;;4.75;;
20480;SDS011;10399;50.754;3.366;2023-06-10T15:31:08;8.27;;;4.90;;
20480;SDS011;10399;50.754;3.366;2023-06-10T15:33:35;5.63;;;4.28;;
20480;SDS011;10399;50.754;3.366;2023-06-10T15:36:02;5.35;;;4.55;;
20480;SDS011;10399;50.754;3.366;2023-06-10T15:38:31;4.70;;;4.22;;
20480;SDS011;10399;50.754;3.366;2023-06-10T15:40:58;13.30;;;5.00;;